sensor_id;sensor_type;location;lat;lon;timestamp;P1;durP1;ratioP1;P2;durP2;ratioP2
4272;SDS011;63887;53.656;9.810;2023-03-23T00:01:37;23.43;;;15.03;;
4272;SDS011;63887;53.656;9.810;2023-03-23T00:04:05;18.50;;;15.10;;
4272;SDS011;63887;53.656;9.810;2023-03-23T00:06:32;29.00;;;14.90;;
4272;SDS011;63887;53.656;9.810;2023-03-23T00:08:59;21.27;;;14.97;;
4272;SDS011;63887;53.656;9.810;2023-03-23T00:11:31;17.03;;;14.40;;
4272;SDS011;63887;53.656;9.810;2023-03-23T00:13:59;23.20;;;14.70;;
4272;SDS011;63887;53.656;9.810;2023-03-23T00:16:27;17.10;;;13.80;;
4272;SDS011;63887;53.656;9.810;2023-03-23T00:18:57;21.23;;;15.23;;
4272;SDS011;63887;53.656;9.810;2023-03-23T00:21:27;18.03;;;14.77;;
4272;SDS011;63887;53.656;9.810;2023-03-23T00:24:00;23.03;;;15.23;;
4272;SDS011;63887;53.656;9.810;2023-03-23T00:26:27;24.50;;;16.50;;
4272;SDS011;63887;53.656;9.810;2023-03-23T00:28:54;17.43;;;15.63;;
4272;SDS011;63887;53.656;9.810;2023-03-23T00:31:21;30.47;;;16.47;;
4272;SDS011;63887;53.656;9.810;2023-03-23T00:33:47;20.67;;;15.93;;
4272;SDS011;63887;53.656;9.810;2023-03-23T00:36:14;17.53;;;15.63;;
4272;SDS011;63887;53.656;9.810;2023-03-23T00:38:42;27.87;;;17.17;;
4272;SDS011;63887;53.656;9.810;2023-03-23T00:41:09;19.23;;;16.80;;
4272;SDS011;63887;53.656;9.810;2023-03-23T00:43:36;20.47;;;17.37;;
4272;SDS011;63887;53.656;9.810;2023-03-23T00:46:04;19.23;;;15.30;;
4272;SDS011;63887;53.656;9.810;2023-03-23T00:48:34;25.20;;;17.23;;
4272;SDS011;63887;53.656;9.810;2023-03-23T00:51:05;22.93;;;18.83;;
4272;SDS011;63887;53.656;9.810;2023-03-23T00:53:35;20.10;;;17.00;;
4272;SDS011;63887;53.656;9.810;2023-03-23T00:56:03;24.50;;;18.30;;
4272;SDS011;63887;53.656;9.810;2023-03-23T00:58:30;26.17;;;18.60;;
4272;SDS011;63887;53.656;9.810;2023-03-23T01:00:56;22.70;;;18.57;;
4272;SDS011;63887;53.656;9.810;2023-03-23T01:03:22;23.83;;;18.60;;
4272;SDS011;63887;53.656;9.810;2023-03-23T01:05:50;22.87;;;18.10;;
4272;SDS011;63887;53.656;9.810;2023-03-23T01:08:17;26.73;;;19.03;;
4272;SDS011;63887;53.656;9.810;2023-03-23T01:10:46;25.77;;;19.90;;
4272;SDS011;63887;53.656;9.810;2023-03-23T01:13:14;21.50;;;18.20;;
4272;SDS011;63887;53.656;9.810;2023-03-23T01:15:41;24.67;;;19.30;;
4272;SDS011;63887;53.656;9.810;2023-03-23T01:18:08;28.97;;;19.67;;
4272;SDS011;63887;53.656;9.810;2023-03-23T01:20:35;25.80;;;20.70;;
4272;SDS011;63887;53.656;9.810;2023-03-23T01:23:02;31.03;;;18.80;;
4272;SDS011;63887;53.656;9.810;2023-03-23T01:25:30;26.90;;;20.67;;
4272;SDS011;63887;53.656;9.810;2023-03-23T01:27:58;29.30;;;20.20;;
4272;SDS011;63887;53.656;9.810;2023-03-23T01:30:26;31.07;;;19.80;;
4272;SDS011;63887;53.656;9.810;2023-03-23T01:32:53;30.60;;;20.17;;
4272;SDS011;63887;53.656;9.810;2023-03-23T01:35:20;32.60;;;20.77;;
4272;SDS011;63887;53.656;9.810;2023-03-23T01:37:47;24.10;;;20.27;;
4272;SDS011;63887;53.656;9.810;2023-03-23T01:40:14;22.43;;;19.33;;
4272;SDS011;63887;53.656;9.810;2023-03-23T01:42:41;30.50;;;19.27;;
4272;SDS011;63887;53.656;9.810;2023-03-23T01:47:56;23.40;;;19.67;;
4272;SDS011;63887;53.656;9.810;2023-03-23T01:50:28;23.77;;;19.23;;
4272;SDS011;63887;53.656;9.810;2023-03-23T01:52:59;23.73;;;20.40;;
4272;SDS011;63887;53.656;9.810;2023-03-23T01:55:28;25.97;;;21.40;;
4272;SDS011;63887;53.656;9.810;2023-03-23T01:57:56;22.57;;;19.90;;
4272;SDS011;63887;53.656;9.810;2023-03-23T02:00:23;26.70;;;21.00;;
4272;SDS011;63887;53.656;9.810;2023-03-23T02:02:52;31.30;;;21.20;;
4272;SDS011;63887;53.656;9.810;2023-03-23T02:05:24;26.30;;;20.70;;
4272;SDS011;63887;53.656;9.810;2023-03-23T02:07:55;25.07;;;19.63;;
4272;SDS011;63887;53.656;9.810;2023-03-23T02:10:27;32.80;;;21.63;;
4272;SDS011;63887;53.656;9.810;2023-03-23T02:12:54;31.63;;;22.57;;
4272;SDS011;63887;53.656;9.810;2023-03-23T02:15:21;24.00;;;21.27;;
4272;SDS011;63887;53.656;9.810;2023-03-23T02:17:50;29.57;;;22.17;;
4272;SDS011;63887;53.656;9.810;2023-03-23T02:20:33;29.00;;;21.33;;
4272;SDS011;63887;53.656;9.810;2023-03-23T02:23:25;29.23;;;21.67;;
4272;SDS011;63887;53.656;9.810;2023-03-23T02:26:13;23.33;;;19.70;;
4272;SDS011;63887;53.656;9.810;2023-03-23T02:29:07;26.03;;;20.80;;
4272;SDS011;63887;53.656;9.810;2023-03-23T02:31:55;26.10;;;21.07;;
4272;SDS011;63887;53.656;9.810;2023-03-23T02:34:37;27.33;;;20.17;;
4272;SDS011;63887;53.656;9.810;2023-03-23T02:37:08;29.40;;;20.70;;
4272;SDS011;63887;53.656;9.810;2023-03-23T02:39:40;30.47;;;22.87;;
4272;SDS011;63887;53.656;9.810;2023-03-23T02:42:12;28.00;;;19.90;;
4272;SDS011;63887;53.656;9.810;2023-03-23T02:44:42;27.93;;;21.00;;
4272;SDS011;63887;53.656;9.810;2023-03-23T02:47:11;26.80;;;21.80;;
4272;SDS011;63887;53.656;9.810;2023-03-23T02:49:43;30.90;;;22.17;;
4272;SDS011;63887;53.656;9.810;2023-03-23T02:52:14;30.30;;;22.00;;
4272;SDS011;63887;53.656;9.810;2023-03-23T02:54:44;25.10;;;21.10;;
4272;SDS011;63887;53.656;9.810;2023-03-23T02:57:14;24.53;;;20.63;;
4272;SDS011;63887;53.656;9.810;2023-03-23T02:59:41;26.33;;;22.23;;
4272;SDS011;63887;53.656;9.810;2023-03-23T03:02:08;31.47;;;20.53;;
4272;SDS011;63887;53.656;9.810;2023-03-23T03:04:38;27.83;;;22.20;;
4272;SDS011;63887;53.656;9.810;2023-03-23T03:07:17;29.20;;;21.87;;
4272;SDS011;63887;53.656;9.810;2023-03-23T03:09:54;37.83;;;21.67;;
4272;SDS011;63887;53.656;9.810;2023-03-23T03:12:26;24.77;;;20.67;;
4272;SDS011;63887;53.656;9.810;2023-03-23T03:15:02;26.17;;;20.87;;
4272;SDS011;63887;53.656;9.810;2023-03-23T03:17:34;23.27;;;19.60;;
4272;SDS011;63887;53.656;9.810;2023-03-23T03:20:08;28.43;;;19.50;;
4272;SDS011;63887;53.656;9.810;2023-03-23T03:22:38;30.50;;;21.87;;
4272;SDS011;63887;53.656;9.810;2023-03-23T03:25:08;21.77;;;19.37;;
4272;SDS011;63887;53.656;9.810;2023-03-23T03:27:37;24.17;;;19.23;;
4272;SDS011;63887;53.656;9.810;2023-03-23T03:30:06;23.23;;;20.73;;
4272;SDS011;63887;53.656;9.810;2023-03-23T03:32:38;24.57;;;19.63;;
4272;SDS011;63887;53.656;9.810;2023-03-23T03:35:11;23.90;;;21.17;;
4272;SDS011;63887;53.656;9.810;2023-03-23T03:37:41;24.30;;;20.40;;
4272;SDS011;63887;53.656;9.810;2023-03-23T03:40:08;25.13;;;19.40;;
4272;SDS011;63887;53.656;9.810;2023-03-23T03:42:37;24.57;;;20.03;;
4272;SDS011;63887;53.656;9.810;2023-03-23T03:45:04;30.63;;;20.70;;
4272;SDS011;63887;53.656;9.810;2023-03-23T03:47:33;26.00;;;20.80;;
4272;SDS011;63887;53.656;9.810;2023-03-23T03:50:00;25.43;;;20.63;;
4272;SDS011;63887;53.656;9.810;2023-03-23T03:52:26;27.83;;;21.37;;
4272;SDS011;63887;53.656;9.810;2023-03-23T03:54:55;31.93;;;23.03;;
4272;SDS011;63887;53.656;9.810;2023-03-23T03:57:21;25.17;;;22.10;;
4272;SDS011;63887;53.656;9.810;2023-03-23T03:59:48;33.40;;;23.43;;
4272;SDS011;63887;53.656;9.810;2023-03-23T04:02:14;25.83;;;19.93;;
4272;SDS011;63887;53.656;9.810;2023-03-23T04:04:44;26.43;;;23.00;;
4272;SDS011;63887;53.656;9.810;2023-03-23T04:07:11;25.90;;;21.17;;
4272;SDS011;63887;53.656;9.810;2023-03-23T04:09:38;27.37;;;20.30;;
4272;SDS011;63887;53.656;9.810;2023-03-23T04:12:06;24.97;;;21.07;;
4272;SDS011;63887;53.656;9.810;2023-03-23T04:14:33;22.60;;;20.13;;
4272;SDS011;63887;53.656;9.810;2023-03-23T04:17:00;27.63;;;20.80;;
4272;SDS011;63887;53.656;9.810;2023-03-23T04:19:27;19.50;;;17.30;;
4272;SDS011;63887;53.656;9.810;2023-03-23T04:21:57;26.50;;;19.20;;
4272;SDS011;63887;53.656;9.810;2023-03-23T04:24:24;21.90;;;19.73;;
4272;SDS011;63887;53.656;9.810;2023-03-23T04:26:53;23.00;;;20.60;;
4272;SDS011;63887;53.656;9.810;2023-03-23T04:29:21;24.13;;;20.20;;
4272;SDS011;63887;53.656;9.810;2023-03-23T04:31:48;23.80;;;19.83;;
4272;SDS011;63887;53.656;9.810;2023-03-23T04:34:15;26.50;;;21.37;;
4272;SDS011;63887;53.656;9.810;2023-03-23T04:36:42;22.30;;;19.90;;
4272;SDS011;63887;53.656;9.810;2023-03-23T04:39:09;28.20;;;19.70;;
4272;SDS011;63887;53.656;9.810;2023-03-23T04:41:36;30.70;;;20.90;;
4272;SDS011;63887;53.656;9.810;2023-03-23T04:44:03;23.10;;;19.97;;
4272;SDS011;63887;53.656;9.810;2023-03-23T04:46:31;24.00;;;21.40;;
4272;SDS011;63887;53.656;9.810;2023-03-23T04:48:58;29.13;;;22.10;;
4272;SDS011;63887;53.656;9.810;2023-03-23T04:51:24;22.00;;;19.70;;
4272;SDS011;63887;53.656;9.810;2023-03-23T04:53:52;23.33;;;20.43;;
4272;SDS011;63887;53.656;9.810;2023-03-23T04:56:18;22.57;;;20.37;;
4272;SDS011;63887;53.656;9.810;2023-03-23T04:58:45;29.70;;;20.43;;
4272;SDS011;63887;53.656;9.810;2023-03-23T05:01:12;23.10;;;20.00;;
4272;SDS011;63887;53.656;9.810;2023-03-23T05:03:41;23.03;;;20.50;;
4272;SDS011;63887;53.656;9.810;2023-03-23T05:06:08;25.40;;;20.03;;
4272;SDS011;63887;53.656;9.810;2023-03-23T05:08:36;24.03;;;19.90;;
4272;SDS011;63887;53.656;9.810;2023-03-23T05:11:03;29.80;;;19.70;;
4272;SDS011;63887;53.656;9.810;2023-03-23T05:13:31;24.73;;;19.63;;
4272;SDS011;63887;53.656;9.810;2023-03-23T05:15:58;26.50;;;20.27;;
4272;SDS011;63887;53.656;9.810;2023-03-23T05:18:28;21.83;;;19.53;;
4272;SDS011;63887;53.656;9.810;2023-03-23T05:21:00;23.20;;;20.73;;
4272;SDS011;63887;53.656;9.810;2023-03-23T05:23:27;21.20;;;19.00;;
4272;SDS011;63887;53.656;9.810;2023-03-23T05:25:56;28.83;;;21.23;;
4272;SDS011;63887;53.656;9.810;2023-03-23T05:28:25;20.90;;;18.70;;
4272;SDS011;63887;53.656;9.810;2023-03-23T05:30:52;22.50;;;20.10;;
4272;SDS011;63887;53.656;9.810;2023-03-23T05:33:18;23.67;;;21.17;;
4272;SDS011;63887;53.656;9.810;2023-03-23T05:35:45;24.10;;;21.30;;
4272;SDS011;63887;53.656;9.810;2023-03-23T05:38:15;25.10;;;19.83;;
4272;SDS011;63887;53.656;9.810;2023-03-23T05:40:42;24.00;;;21.20;;
4272;SDS011;63887;53.656;9.810;2023-03-23T05:43:09;25.10;;;20.80;;
4272;SDS011;63887;53.656;9.810;2023-03-23T05:45:37;24.93;;;21.53;;
4272;SDS011;63887;53.656;9.810;2023-03-23T05:48:03;23.57;;;20.47;;
4272;SDS011;63887;53.656;9.810;2023-03-23T05:50:30;22.87;;;20.47;;
4272;SDS011;63887;53.656;9.810;2023-03-23T05:52:56;25.80;;;22.30;;
4272;SDS011;63887;53.656;9.810;2023-03-23T05:55:24;25.30;;;20.63;;
4272;SDS011;63887;53.656;9.810;2023-03-23T05:57:51;26.53;;;20.17;;
4272;SDS011;63887;53.656;9.810;2023-03-23T06:00:17;23.63;;;20.30;;
4272;SDS011;63887;53.656;9.810;2023-03-23T06:02:48;21.13;;;18.70;;
4272;SDS011;63887;53.656;9.810;2023-03-23T06:05:16;25.63;;;19.60;;
4272;SDS011;63887;53.656;9.810;2023-03-23T06:07:42;22.93;;;18.37;;
4272;SDS011;63887;53.656;9.810;2023-03-23T06:10:09;22.20;;;19.63;;
4272;SDS011;63887;53.656;9.810;2023-03-23T06:12:38;23.20;;;19.67;;
4272;SDS011;63887;53.656;9.810;2023-03-23T06:15:06;23.43;;;18.60;;
4272;SDS011;63887;53.656;9.810;2023-03-23T06:17:33;22.23;;;19.87;;
4272;SDS011;63887;53.656;9.810;2023-03-23T06:20:01;20.43;;;18.23;;
4272;SDS011;63887;53.656;9.810;2023-03-23T06:22:31;23.23;;;19.57;;
4272;SDS011;63887;53.656;9.810;2023-03-23T06:24:58;20.90;;;18.37;;
4272;SDS011;63887;53.656;9.810;2023-03-23T06:27:25;19.43;;;17.60;;
4272;SDS011;63887;53.656;9.810;2023-03-23T06:29:54;21.03;;;18.17;;
4272;SDS011;63887;53.656;9.810;2023-03-23T06:32:21;25.70;;;18.20;;
4272;SDS011;63887;53.656;9.810;2023-03-23T06:34:48;27.73;;;17.27;;
4272;SDS011;63887;53.656;9.810;2023-03-23T06:37:15;21.50;;;17.37;;
4272;SDS011;63887;53.656;9.810;2023-03-23T06:39:41;19.80;;;15.30;;
4272;SDS011;63887;53.656;9.810;2023-03-23T06:42:08;18.60;;;16.47;;
4272;SDS011;63887;53.656;9.810;2023-03-23T06:44:37;18.43;;;16.50;;
4272;SDS011;63887;53.656;9.810;2023-03-23T06:47:05;15.53;;;14.03;;
4272;SDS011;63887;53.656;9.810;2023-03-23T06:49:32;17.17;;;15.50;;
4272;SDS011;63887;53.656;9.810;2023-03-23T06:51:59;17.37;;;15.57;;
4272;SDS011;63887;53.656;9.810;2023-03-23T06:54:26;15.70;;;14.20;;
4272;SDS011;63887;53.656;9.810;2023-03-23T06:56:53;20.10;;;14.90;;
4272;SDS011;63887;53.656;9.810;2023-03-23T06:59:20;17.20;;;14.87;;
4272;SDS011;63887;53.656;9.810;2023-03-23T07:01:46;16.87;;;15.13;;
4272;SDS011;63887;53.656;9.810;2023-03-23T07:04:14;15.37;;;13.80;;
4272;SDS011;63887;53.656;9.810;2023-03-23T07:06:41;15.80;;;14.27;;
4272;SDS011;63887;53.656;9.810;2023-03-23T07:09:07;15.63;;;13.13;;
4272;SDS011;63887;53.656;9.810;2023-03-23T07:11:34;15.00;;;13.60;;
4272;SDS011;63887;53.656;9.810;2023-03-23T07:14:01;13.33;;;12.13;;
4272;SDS011;63887;53.656;9.810;2023-03-23T07:16:27;13.50;;;12.40;;
4272;SDS011;63887;53.656;9.810;2023-03-23T07:18:54;14.00;;;12.90;;
4272;SDS011;63887;53.656;9.810;2023-03-23T07:21:21;13.90;;;12.80;;
4272;SDS011;63887;53.656;9.810;2023-03-23T07:23:48;13.27;;;11.67;;
4272;SDS011;63887;53.656;9.810;2023-03-23T07:26:14;12.83;;;11.90;;
4272;SDS011;63887;53.656;9.810;2023-03-23T07:28:41;12.50;;;10.90;;
4272;SDS011;63887;53.656;9.810;2023-03-23T07:31:08;13.17;;;11.97;;
4272;SDS011;63887;53.656;9.810;2023-03-23T07:33:35;12.20;;;11.27;;
4272;SDS011;63887;53.656;9.810;2023-03-23T07:36:02;11.27;;;10.17;;
4272;SDS011;63887;53.656;9.810;2023-03-23T07:38:31;14.40;;;13.00;;
4272;SDS011;63887;53.656;9.810;2023-03-23T07:40:57;12.80;;;11.70;;
4272;SDS011;63887;53.656;9.810;2023-03-23T07:43:24;21.40;;;11.70;;
4272;SDS011;63887;53.656;9.810;2023-03-23T07:45:51;12.93;;;11.87;;
4272;SDS011;63887;53.656;9.810;2023-03-23T07:48:17;16.10;;;12.33;;
4272;SDS011;63887;53.656;9.810;2023-03-23T07:50:44;15.83;;;12.47;;
4272;SDS011;63887;53.656;9.810;2023-03-23T07:53:10;12.20;;;11.30;;
4272;SDS011;63887;53.656;9.810;2023-03-23T07:55:38;17.77;;;13.10;;
4272;SDS011;63887;53.656;9.810;2023-03-23T07:58:05;26.17;;;11.07;;
4272;SDS011;63887;53.656;9.810;2023-03-23T08:00:32;9.33;;;8.60;;
4272;SDS011;63887;53.656;9.810;2023-03-23T08:02:59;10.73;;;7.27;;
4272;SDS011;63887;53.656;9.810;2023-03-23T08:05:25;8.30;;;7.70;;
4272;SDS011;63887;53.656;9.810;2023-03-23T08:07:53;9.80;;;6.80;;
4272;SDS011;63887;53.656;9.810;2023-03-23T08:10:22;6.00;;;5.47;;
4272;SDS011;63887;53.656;9.810;2023-03-23T08:12:52;5.80;;;5.40;;
4272;SDS011;63887;53.656;9.810;2023-03-23T08:15:20;7.77;;;6.53;;
4272;SDS011;63887;53.656;9.810;2023-03-23T08:17:47;6.30;;;5.90;;
4272;SDS011;63887;53.656;9.810;2023-03-23T08:20:15;11.13;;;6.40;;
4272;SDS011;63887;53.656;9.810;2023-03-23T08:22:44;6.40;;;6.17;;
4272;SDS011;63887;53.656;9.810;2023-03-23T08:25:12;6.37;;;5.93;;
4272;SDS011;63887;53.656;9.810;2023-03-23T08:27:42;6.27;;;6.17;;
4272;SDS011;63887;53.656;9.810;2023-03-23T08:30:11;6.83;;;6.27;;
4272;SDS011;63887;53.656;9.810;2023-03-23T08:32:40;9.83;;;5.57;;
4272;SDS011;63887;53.656;9.810;2023-03-23T08:35:07;8.13;;;7.60;;
4272;SDS011;63887;53.656;9.810;2023-03-23T08:37:36;6.87;;;6.67;;
4272;SDS011;63887;53.656;9.810;2023-03-23T08:40:02;6.87;;;6.47;;
4272;SDS011;63887;53.656;9.810;2023-03-23T08:42:34;7.47;;;6.77;;
4272;SDS011;63887;53.656;9.810;2023-03-23T08:45:00;7.77;;;7.37;;
4272;SDS011;63887;53.656;9.810;2023-03-23T08:47:29;8.33;;;7.50;;
4272;SDS011;63887;53.656;9.810;2023-03-23T08:49:56;8.60;;;7.73;;
4272;SDS011;63887;53.656;9.810;2023-03-23T08:52:22;7.83;;;7.13;;
4272;SDS011;63887;53.656;9.810;2023-03-23T08:54:49;10.07;;;7.23;;
4272;SDS011;63887;53.656;9.810;2023-03-23T08:57:16;7.20;;;6.60;;
4272;SDS011;63887;53.656;9.810;2023-03-23T08:59:43;7.60;;;7.20;;
4272;SDS011;63887;53.656;9.810;2023-03-23T09:02:10;7.77;;;7.30;;
4272;SDS011;63887;53.656;9.810;2023-03-23T09:04:39;8.73;;;7.47;;
4272;SDS011;63887;53.656;9.810;2023-03-23T09:07:07;12.40;;;7.70;;
4272;SDS011;63887;53.656;9.810;2023-03-23T09:09:34;7.80;;;7.40;;
4272;SDS011;63887;53.656;9.810;2023-03-23T09:12:00;7.47;;;6.80;;
4272;SDS011;63887;53.656;9.810;2023-03-23T09:14:27;9.90;;;7.33;;
4272;SDS011;63887;53.656;9.810;2023-03-23T09:16:53;8.23;;;6.97;;
4272;SDS011;63887;53.656;9.810;2023-03-23T09:19:20;9.47;;;7.30;;
4272;SDS011;63887;53.656;9.810;2023-03-23T09:21:47;10.80;;;7.30;;
4272;SDS011;63887;53.656;9.810;2023-03-23T09:24:14;10.30;;;7.83;;
4272;SDS011;63887;53.656;9.810;2023-03-23T09:26:41;12.83;;;8.47;;
4272;SDS011;63887;53.656;9.810;2023-03-23T09:29:07;7.73;;;7.30;;
4272;SDS011;63887;53.656;9.810;2023-03-23T09:31:34;13.13;;;7.70;;
4272;SDS011;63887;53.656;9.810;2023-03-23T09:34:01;17.03;;;8.87;;
4272;SDS011;63887;53.656;9.810;2023-03-23T09:36:29;11.70;;;6.77;;
4272;SDS011;63887;53.656;9.810;2023-03-23T09:38:58;18.83;;;7.63;;
4272;SDS011;63887;53.656;9.810;2023-03-23T09:41:32;8.83;;;7.93;;
4272;SDS011;63887;53.656;9.810;2023-03-23T09:44:09;13.10;;;9.17;;
4272;SDS011;63887;53.656;9.810;2023-03-23T09:46:48;9.73;;;8.33;;
4272;SDS011;63887;53.656;9.810;2023-03-23T09:49:21;17.37;;;8.77;;
4272;SDS011;63887;53.656;9.810;2023-03-23T09:51:52;21.80;;;8.10;;
4272;SDS011;63887;53.656;9.810;2023-03-23T09:54:24;12.30;;;7.90;;
4272;SDS011;63887;53.656;9.810;2023-03-23T09:56:53;16.10;;;9.10;;
4272;SDS011;63887;53.656;9.810;2023-03-23T09:59:22;13.93;;;8.47;;
4272;SDS011;63887;53.656;9.810;2023-03-23T10:01:54;12.80;;;8.43;;
4272;SDS011;63887;53.656;9.810;2023-03-23T10:04:30;18.43;;;7.57;;
4272;SDS011;63887;53.656;9.810;2023-03-23T10:07:06;8.50;;;7.53;;
4272;SDS011;63887;53.656;9.810;2023-03-23T10:09:37;9.50;;;7.60;;
4272;SDS011;63887;53.656;9.810;2023-03-23T10:12:07;12.63;;;7.60;;
4272;SDS011;63887;53.656;9.810;2023-03-23T10:14:49;13.10;;;8.17;;
4272;SDS011;63887;53.656;9.810;2023-03-23T10:17:26;19.23;;;8.00;;
4272;SDS011;63887;53.656;9.810;2023-03-23T10:19:58;20.20;;;8.10;;
4272;SDS011;63887;53.656;9.810;2023-03-23T10:22:41;11.47;;;7.23;;
4272;SDS011;63887;53.656;9.810;2023-03-23T10:25:16;17.90;;;8.73;;
4272;SDS011;63887;53.656;9.810;2023-03-23T10:27:47;14.60;;;8.30;;
4272;SDS011;63887;53.656;9.810;2023-03-23T10:30:19;31.47;;;9.43;;
4272;SDS011;63887;53.656;9.810;2023-03-23T10:32:51;18.10;;;8.70;;
4272;SDS011;63887;53.656;9.810;2023-03-23T10:35:22;8.30;;;7.47;;
4272;SDS011;63887;53.656;9.810;2023-03-23T10:37:53;14.43;;;7.77;;
4272;SDS011;63887;53.656;9.810;2023-03-23T10:40:27;10.83;;;7.90;;
4272;SDS011;63887;53.656;9.810;2023-03-23T10:42:56;24.50;;;9.23;;
4272;SDS011;63887;53.656;9.810;2023-03-23T10:45:25;19.50;;;7.90;;
4272;SDS011;63887;53.656;9.810;2023-03-23T10:47:59;8.83;;;8.10;;
4272;SDS011;63887;53.656;9.810;2023-03-23T10:50:43;11.70;;;9.70;;
4272;SDS011;63887;53.656;9.810;2023-03-23T10:53:14;14.07;;;7.60;;
4272;SDS011;63887;53.656;9.810;2023-03-23T10:55:45;9.73;;;8.17;;
4272;SDS011;63887;53.656;9.810;2023-03-23T10:58:12;13.63;;;7.97;;
4272;SDS011;63887;53.656;9.810;2023-03-23T11:00:48;11.73;;;8.17;;
4272;SDS011;63887;53.656;9.810;2023-03-23T11:03:25;15.10;;;8.00;;
4272;SDS011;63887;53.656;9.810;2023-03-23T11:06:00;19.10;;;8.17;;
4272;SDS011;63887;53.656;9.810;2023-03-23T11:08:29;17.93;;;7.10;;
4272;SDS011;63887;53.656;9.810;2023-03-23T11:11:08;16.33;;;7.90;;
4272;SDS011;63887;53.656;9.810;2023-03-23T11:13:38;10.77;;;8.07;;
4272;SDS011;63887;53.656;9.810;2023-03-23T11:16:08;13.13;;;9.40;;
4272;SDS011;63887;53.656;9.810;2023-03-23T11:18:37;24.73;;;9.37;;
4272;SDS011;63887;53.656;9.810;2023-03-23T11:21:05;17.70;;;7.73;;
4272;SDS011;63887;53.656;9.810;2023-03-23T11:23:34;20.97;;;9.57;;
4272;SDS011;63887;53.656;9.810;2023-03-23T11:26:08;27.23;;;9.50;;
4272;SDS011;63887;53.656;9.810;2023-03-23T11:28:42;19.00;;;8.43;;
4272;SDS011;63887;53.656;9.810;2023-03-23T11:31:11;19.67;;;8.70;;
4272;SDS011;63887;53.656;9.810;2023-03-23T11:33:39;16.93;;;8.70;;
4272;SDS011;63887;53.656;9.810;2023-03-23T11:36:09;16.97;;;8.97;;
4272;SDS011;63887;53.656;9.810;2023-03-23T11:38:39;20.40;;;8.70;;
4272;SDS011;63887;53.656;9.810;2023-03-23T11:41:10;19.77;;;9.30;;
4272;SDS011;63887;53.656;9.810;2023-03-23T11:43:43;19.73;;;9.37;;
4272;SDS011;63887;53.656;9.810;2023-03-23T11:46:13;17.50;;;7.70;;
4272;SDS011;63887;53.656;9.810;2023-03-23T11:48:49;22.30;;;9.37;;
4272;SDS011;63887;53.656;9.810;2023-03-23T11:51:23;18.97;;;8.67;;
4272;SDS011;63887;53.656;9.810;2023-03-23T11:54:08;27.50;;;9.27;;
4272;SDS011;63887;53.656;9.810;2023-03-23T11:56:46;23.67;;;8.90;;
4272;SDS011;63887;53.656;9.810;2023-03-23T11:59:14;19.40;;;8.20;;
4272;SDS011;63887;53.656;9.810;2023-03-23T12:01:50;20.93;;;8.33;;
4272;SDS011;63887;53.656;9.810;2023-03-23T12:04:24;20.47;;;8.73;;
4272;SDS011;63887;53.656;9.810;2023-03-23T12:07:13;23.97;;;8.20;;
4272;SDS011;63887;53.656;9.810;2023-03-23T12:09:56;28.13;;;8.90;;
4272;SDS011;63887;53.656;9.810;2023-03-23T12:12:32;14.43;;;7.70;;
4272;SDS011;63887;53.656;9.810;2023-03-23T12:15:09;23.03;;;8.20;;
4272;SDS011;63887;53.656;9.810;2023-03-23T12:17:47;16.37;;;9.10;;
4272;SDS011;63887;53.656;9.810;2023-03-23T12:20:23;18.90;;;8.40;;
4272;SDS011;63887;53.656;9.810;2023-03-23T12:23:06;24.67;;;8.53;;
4272;SDS011;63887;53.656;9.810;2023-03-23T12:31:56;17.53;;;8.07;;
4272;SDS011;63887;53.656;9.810;2023-03-23T12:34:38;14.80;;;9.03;;
4272;SDS011;63887;53.656;9.810;2023-03-23T12:37:21;14.03;;;8.33;;
4272;SDS011;63887;53.656;9.810;2023-03-23T12:40:18;12.43;;;8.13;;
4272;SDS011;63887;53.656;9.810;2023-03-23T12:42:54;13.83;;;8.50;;
4272;SDS011;63887;53.656;9.810;2023-03-23T12:45:40;11.03;;;8.60;;
4272;SDS011;63887;53.656;9.810;2023-03-23T12:48:17;16.17;;;9.30;;
4272;SDS011;63887;53.656;9.810;2023-03-23T12:50:58;13.93;;;8.93;;
4272;SDS011;63887;53.656;9.810;2023-03-23T12:53:33;9.83;;;8.93;;
4272;SDS011;63887;53.656;9.810;2023-03-23T12:56:10;17.27;;;9.40;;
4272;SDS011;63887;53.656;9.810;2023-03-23T12:58:41;8.70;;;7.90;;
4272;SDS011;63887;53.656;9.810;2023-03-23T13:01:11;17.80;;;8.60;;
4272;SDS011;63887;53.656;9.810;2023-03-23T13:03:48;17.33;;;8.13;;
4272;SDS011;63887;53.656;9.810;2023-03-23T13:06:20;19.67;;;8.70;;
4272;SDS011;63887;53.656;9.810;2023-03-23T13:08:53;13.03;;;8.60;;
4272;SDS011;63887;53.656;9.810;2023-03-23T13:11:25;17.07;;;9.33;;
4272;SDS011;63887;53.656;9.810;2023-03-23T13:13:59;11.30;;;9.53;;
4272;SDS011;63887;53.656;9.810;2023-03-23T13:16:36;13.10;;;8.37;;
4272;SDS011;63887;53.656;9.810;2023-03-23T13:19:11;9.40;;;7.83;;
4272;SDS011;63887;53.656;9.810;2023-03-23T13:21:43;15.77;;;8.83;;
4272;SDS011;63887;53.656;9.810;2023-03-23T13:24:13;12.00;;;8.37;;
4272;SDS011;63887;53.656;9.810;2023-03-23T13:26:43;15.27;;;8.60;;
4272;SDS011;63887;53.656;9.810;2023-03-23T13:29:13;14.23;;;9.80;;
4272;SDS011;63887;53.656;9.810;2023-03-23T13:31:43;12.17;;;8.40;;
4272;SDS011;63887;53.656;9.810;2023-03-23T13:34:15;13.63;;;9.60;;
4272;SDS011;63887;53.656;9.810;2023-03-23T13:36:44;12.40;;;10.00;;
4272;SDS011;63887;53.656;9.810;2023-03-23T13:39:20;11.73;;;9.53;;
4272;SDS011;63887;53.656;9.810;2023-03-23T13:41:58;14.00;;;10.17;;
4272;SDS011;63887;53.656;9.810;2023-03-23T13:44:27;10.30;;;9.50;;
4272;SDS011;63887;53.656;9.810;2023-03-23T13:47:15;10.57;;;8.07;;
4272;SDS011;63887;53.656;9.810;2023-03-23T13:49:50;7.63;;;7.07;;
4272;SDS011;63887;53.656;9.810;2023-03-23T13:52:21;7.70;;;7.00;;
4272;SDS011;63887;53.656;9.810;2023-03-23T13:54:50;8.77;;;7.97;;
4272;SDS011;63887;53.656;9.810;2023-03-23T13:57:24;7.40;;;7.20;;
4272;SDS011;63887;53.656;9.810;2023-03-23T14:00:10;9.63;;;7.90;;
4272;SDS011;63887;53.656;9.810;2023-03-23T14:02:51;9.20;;;7.67;;
4272;SDS011;63887;53.656;9.810;2023-03-23T14:05:29;7.70;;;7.50;;
4272;SDS011;63887;53.656;9.810;2023-03-23T14:07:59;7.03;;;6.73;;
4272;SDS011;63887;53.656;9.810;2023-03-23T14:10:32;8.83;;;7.87;;
4272;SDS011;63887;53.656;9.810;2023-03-23T14:13:00;8.60;;;7.90;;
4272;SDS011;63887;53.656;9.810;2023-03-23T14:15:29;10.00;;;7.57;;
4272;SDS011;63887;53.656;9.810;2023-03-23T14:17:56;7.50;;;6.97;;
4272;SDS011;63887;53.656;9.810;2023-03-23T14:20:31;8.90;;;8.20;;
4272;SDS011;63887;53.656;9.810;2023-03-23T14:23:00;8.90;;;8.13;;
4272;SDS011;63887;53.656;9.810;2023-03-23T14:25:28;7.90;;;7.17;;
4272;SDS011;63887;53.656;9.810;2023-03-23T14:27:56;8.17;;;7.43;;
4272;SDS011;63887;53.656;9.810;2023-03-23T14:30:24;8.60;;;7.70;;
4272;SDS011;63887;53.656;9.810;2023-03-23T14:32:52;8.20;;;7.53;;
4272;SDS011;63887;53.656;9.810;2023-03-23T14:35:22;8.23;;;7.47;;
4272;SDS011;63887;53.656;9.810;2023-03-23T14:37:55;15.13;;;7.53;;
4272;SDS011;63887;53.656;9.810;2023-03-23T14:40:23;10.33;;;8.00;;
4272;SDS011;63887;53.656;9.810;2023-03-23T14:42:53;7.77;;;7.37;;
4272;SDS011;63887;53.656;9.810;2023-03-23T14:45:21;8.63;;;7.70;;
4272;SDS011;63887;53.656;9.810;2023-03-23T14:47:48;12.17;;;7.20;;
4272;SDS011;63887;53.656;9.810;2023-03-23T14:50:25;10.00;;;7.60;;
4272;SDS011;63887;53.656;9.810;2023-03-23T14:52:57;8.13;;;7.13;;
4272;SDS011;63887;53.656;9.810;2023-03-23T14:55:26;8.73;;;7.83;;
4272;SDS011;63887;53.656;9.810;2023-03-23T14:57:56;8.93;;;7.87;;
4272;SDS011;63887;53.656;9.810;2023-03-23T15:00:33;10.47;;;7.83;;
4272;SDS011;63887;53.656;9.810;2023-03-23T15:03:02;12.40;;;7.97;;
4272;SDS011;63887;53.656;9.810;2023-03-23T15:05:34;11.23;;;7.73;;
4272;SDS011;63887;53.656;9.810;2023-03-23T15:08:06;8.70;;;7.77;;
4272;SDS011;63887;53.656;9.810;2023-03-23T15:10:37;11.47;;;7.37;;